sensor_id;sensor_type;location;lat;lon;timestamp;pressure;altitude;pressure_sealevel;temperature;humidity
39177;BME280;24904;52.208;21.192;2023-05-02T00:03:51;100575.77;;;8.81;49.60
39177;BME280;24904;52.208;21.192;2023-05-02T00:08:54;100569.23;;;8.78;49.74
39177;BME280;24904;52.208;21.192;2023-05-02T00:13:57;100563.52;;;8.78;49.80
39177;BME280;24904;52.208;21.192;2023-05-02T00:19:01;100560.06;;;8.73;49.89
39177;BME280;24904;52.208;21.192;2023-05-02T00:24:05;100552.35;;;8.72;49.94
39177;BME280;24904;52.208;21.192;2023-05-02T00:29:08;100547.93;;;8.71;50.14
39177;BME280;24904;52.208;21.192;2023-05-02T00:34:11;100544.44;;;8.71;50.30
39177;BME280;24904;52.208;21.192;2023-05-02T00:39:14;100545.49;;;8.76;50.41
39177;BME280;24904;52.208;21.192;2023-05-02T00:44:17;100542.83;;;8.80;50.23
39177;BME280;24904;52.208;21.192;2023-05-02T00:49:20;100536.74;;;8.85;50.31
39177;BME280;24904;52.208;21.192;2023-05-02T00:54:24;100533.77;;;8.88;50.18
39177;BME280;24904;52.208;21.192;2023-05-02T00:59:27;100527.70;;;8.93;50.30
39177;BME280;24904;52.208;21.192;2023-05-02T01:04:39;100524.14;;;8.96;50.39
39177;BME280;24904;52.208;21.192;2023-05-02T01:09:55;100525.42;;;8.93;50.24
39177;BME280;24904;52.208;21.192;2023-05-02T01:15:06;100524.30;;;8.97;50.29
39177;BME280;24904;52.208;21.192;2023-05-02T01:20:16;100521.92;;;8.99;50.24
39177;BME280;24904;52.208;21.192;2023-05-02T01:25:30;100522.86;;;8.99;50.16
39177;BME280;24904;52.208;21.192;2023-05-02T01:30:37;100516.89;;;9.02;50.15
39177;BME280;24904;52.208;21.192;2023-05-02T01:35:45;100514.27;;;9.03;50.10
39177;BME280;24904;52.208;21.192;2023-05-02T01:40:53;100509.70;;;8.99;50.48
39177;BME280;24904;52.208;21.192;2023-05-02T01:45:58;100505.65;;;9.00;50.37
39177;BME280;24904;52.208;21.192;2023-05-02T01:51:05;100499.38;;;8.98;50.47
39177;BME280;24904;52.208;21.192;2023-05-02T01:56:11;100493.94;;;8.96;50.37
39177;BME280;24904;52.208;21.192;2023-05-02T02:09:21;100477.50;;;9.07;50.22
39177;BME280;24904;52.208;21.192;2023-05-02T02:14:25;100471.08;;;9.03;50.34
39177;BME280;24904;52.208;21.192;2023-05-02T02:19:30;100472.79;;;9.03;50.35
39177;BME280;24904;52.208;21.192;2023-05-02T02:24:35;100468.45;;;9.05;50.45
39177;BME280;24904;52.208;21.192;2023-05-02T02:29:38;100461.83;;;9.06;50.41
39177;BME280;24904;52.208;21.192;2023-05-02T02:34:42;100457.10;;;9.05;50.58
39177;BME280;24904;52.208;21.192;2023-05-02T02:39:52;100451.77;;;9.03;50.61
39177;BME280;24904;52.208;21.192;2023-05-02T02:45:03;100452.80;;;9.04;50.63
39177;BME280;24904;52.208;21.192;2023-05-02T02:50:15;100456.52;;;9.04;50.79
39177;BME280;24904;52.208;21.192;2023-05-02T02:55:30;100457.84;;;9.03;50.86
39177;BME280;24904;52.208;21.192;2023-05-02T03:00:39;100455.26;;;9.02;50.81
39177;BME280;24904;52.208;21.192;2023-05-02T03:05:42;100449.90;;;9.01;50.91
39177;BME280;24904;52.208;21.192;2023-05-02T03:10:46;100445.06;;;8.98;51.24
39177;BME280;24904;52.208;21.192;2023-05-02T03:16:15;100442.95;;;8.98;51.29
39177;BME280;24904;52.208;21.192;2023-05-02T03:21:24;100444.90;;;9.01;51.36
39177;BME280;24904;52.208;21.192;2023-05-02T03:26:28;100439.65;;;9.05;51.34
39177;BME280;24904;52.208;21.192;2023-05-02T03:31:32;100440.61;;;9.06;51.36
39177;BME280;24904;52.208;21.192;2023-05-02T03:36:35;100442.05;;;9.04;51.42
39177;BME280;24904;52.208;21.192;2023-05-02T03:41:39;100446.14;;;9.04;51.63
39177;BME280;24904;52.208;21.192;2023-05-02T03:46:44;100448.36;;;9.06;51.72
39177;BME280;24904;52.208;21.192;2023-05-02T03:51:48;100449.60;;;9.06;51.79
39177;BME280;24904;52.208;21.192;2023-05-02T03:56:54;100448.58;;;9.05;51.96
39177;BME280;24904;52.208;21.192;2023-05-02T04:02:02;100452.94;;;9.08;51.94
39177;BME280;24904;52.208;21.192;2023-05-02T04:07:18;100457.41;;;9.13;52.04
39177;BME280;24904;52.208;21.192;2023-05-02T04:12:32;100456.63;;;9.16;52.43
39177;BME280;24904;52.208;21.192;2023-05-02T04:17:36;100453.48;;;9.20;52.68
39177;BME280;24904;52.208;21.192;2023-05-02T04:22:41;100456.89;;;9.23;52.46
39177;BME280;24904;52.208;21.192;2023-05-02T04:27:44;100458.96;;;9.30;52.57
39177;BME280;24904;52.208;21.192;2023-05-02T04:32:51;100455.38;;;9.35;52.92
39177;BME280;24904;52.208;21.192;2023-05-02T04:37:54;100456.34;;;9.41;52.63
39177;BME280;24904;52.208;21.192;2023-05-02T04:42:59;100452.27;;;9.45;52.49
39177;BME280;24904;52.208;21.192;2023-05-02T04:48:09;100454.45;;;9.50;52.89
39177;BME280;24904;52.208;21.192;2023-05-02T04:53:13;100457.73;;;9.58;52.92
39177;BME280;24904;52.208;21.192;2023-05-02T04:58:16;100456.79;;;9.63;52.73
39177;BME280;24904;52.208;21.192;2023-05-02T05:03:23;100461.04;;;9.70;52.90
39177;BME280;24904;52.208;21.192;2023-05-02T05:08:27;100459.02;;;9.75;52.99
39177;BME280;24904;52.208;21.192;2023-05-02T05:13:31;100455.27;;;9.81;52.75
39177;BME280;24904;52.208;21.192;2023-05-02T05:18:34;100449.98;;;9.89;52.83
39177;BME280;24904;52.208;21.192;2023-05-02T05:23:42;100445.02;;;9.98;52.95
39177;BME280;24904;52.208;21.192;2023-05-02T05:28:50;100444.80;;;10.04;52.72
39177;BME280;24904;52.208;21.192;2023-05-02T05:33:55;100442.60;;;10.15;53.12
39177;BME280;24904;52.208;21.192;2023-05-02T05:38:58;100439.61;;;10.30;52.93
39177;BME280;24904;52.208;21.192;2023-05-02T05:44:03;100441.48;;;10.48;53.18
39177;BME280;24904;52.208;21.192;2023-05-02T05:49:07;100441.34;;;10.68;52.80
39177;BME280;24904;52.208;21.192;2023-05-02T05:54:11;100441.89;;;10.89;52.78
39177;BME280;24904;52.208;21.192;2023-05-02T05:59:15;100440.86;;;11.12;52.93
39177;BME280;24904;52.208;21.192;2023-05-02T06:04:18;100437.09;;;11.35;52.78
39177;BME280;24904;52.208;21.192;2023-05-02T06:09:24;100436.82;;;11.60;52.76
39177;BME280;24904;52.208;21.192;2023-05-02T06:14:28;100430.51;;;11.84;52.62
39177;BME280;24904;52.208;21.192;2023-05-02T06:19:31;100433.11;;;12.12;52.22
39177;BME280;24904;52.208;21.192;2023-05-02T06:24:34;100436.64;;;12.37;52.04
39177;BME280;24904;52.208;21.192;2023-05-02T06:29:38;100432.90;;;12.65;51.77
39177;BME280;24904;52.208;21.192;2023-05-02T06:34:41;100440.77;;;12.91;51.53
39177;BME280;24904;52.208;21.192;2023-05-02T06:39:44;100443.44;;;13.13;51.27
39177;BME280;24904;52.208;21.192;2023-05-02T06:44:47;100440.58;;;13.44;51.40
39177;BME280;24904;52.208;21.192;2023-05-02T06:49:52;100444.52;;;13.75;51.17
39177;BME280;24904;52.208;21.192;2023-05-02T06:54:55;100441.48;;;14.03;50.96
39177;BME280;24904;52.208;21.192;2023-05-02T06:59:58;100439.94;;;14.23;50.60
39177;BME280;24904;52.208;21.192;2023-05-02T07:05:01;100438.16;;;14.40;50.71
39177;BME280;24904;52.208;21.192;2023-05-02T07:10:06;100445.04;;;14.63;50.59
39177;BME280;24904;52.208;21.192;2023-05-02T07:15:09;100445.94;;;14.90;50.34
39177;BME280;24904;52.208;21.192;2023-05-02T07:20:14;100445.64;;;15.15;50.14
39177;BME280;24904;52.208;21.192;2023-05-02T07:25:18;100444.61;;;15.47;49.96
39177;BME280;24904;52.208;21.192;2023-05-02T07:30:21;100445.00;;;15.80;49.38
39177;BME280;24904;52.208;21.192;2023-05-02T07:35:24;100444.27;;;16.14;49.27
39177;BME280;24904;52.208;21.192;2023-05-02T07:40:27;100441.82;;;16.42;48.71
39177;BME280;24904;52.208;21.192;2023-05-02T07:45:30;100435.75;;;16.68;47.97
39177;BME280;24904;52.208;21.192;2023-05-02T07:50:33;100437.52;;;16.97;47.93
39177;BME280;24904;52.208;21.192;2023-05-02T07:55:36;100437.42;;;17.30;46.96
39177;BME280;24904;52.208;21.192;2023-05-02T08:00:39;100437.05;;;17.54;46.15
39177;BME280;24904;52.208;21.192;2023-05-02T08:05:43;100434.25;;;17.75;45.89
39177;BME280;24904;52.208;21.192;2023-05-02T08:10:46;100428.27;;;18.00;45.41
39177;BME280;24904;52.208;21.192;2023-05-02T08:15:49;100421.17;;;18.26;44.89
39177;BME280;24904;52.208;21.192;2023-05-02T08:20:53;100422.23;;;18.52;44.73
39177;BME280;24904;52.208;21.192;2023-05-02T08:25:57;100429.32;;;18.80;44.00
39177;BME280;24904;52.208;21.192;2023-05-02T08:31:00;100431.44;;;19.02;43.35
39177;BME280;24904;52.208;21.192;2023-05-02T08:36:11;100433.95;;;19.18;43.16
39177;BME280;24904;52.208;21.192;2023-05-02T08:41:16;100441.92;;;19.31;42.35
39177;BME280;24904;52.208;21.192;2023-05-02T08:46:22;100450.31;;;19.33;42.19
39177;BME280;24904;52.208;21.192;2023-05-02T08:51:25;100452.06;;;19.36;41.96
39177;BME280;24904;52.208;21.192;2023-05-02T08:56:30;100454.50;;;19.40;41.97
39177;BME280;24904;52.208;21.192;2023-05-02T09:01:35;100453.70;;;19.47;42.05
39177;BME280;24904;52.208;21.192;2023-05-02T09:06:39;100449.64;;;19.53;42.09
39177;BME280;24904;52.208;21.192;2023-05-02T09:11:42;100452.67;;;19.71;42.25
39177;BME280;24904;52.208;21.192;2023-05-02T09:16:48;100454.23;;;19.78;41.82
39177;BME280;24904;52.208;21.192;2023-05-02T09:21:52;100454.80;;;19.87;42.04
39177;BME280;24904;52.208;21.192;2023-05-02T09:27:01;100451.52;;;19.91;41.73
39177;BME280;24904;52.208;21.192;2023-05-02T09:32:05;100458.28;;;20.04;41.65
39177;BME280;24904;52.208;21.192;2023-05-02T09:37:08;100462.80;;;20.07;41.81
39177;BME280;24904;52.208;21.192;2023-05-02T09:42:12;100468.83;;;20.17;42.05
39177;BME280;24904;52.208;21.192;2023-05-02T09:47:25;100473.55;;;20.19;41.34
39177;BME280;24904;52.208;21.192;2023-05-02T09:52:28;100472.30;;;20.09;41.44
39177;BME280;24904;52.208;21.192;2023-05-02T09:57:48;100474.88;;;20.20;42.02
39177;BME280;24904;52.208;21.192;2023-05-02T10:02:51;100486.03;;;20.35;41.63
39177;BME280;24904;52.208;21.192;2023-05-02T10:07:54;100489.52;;;20.30;41.43
39177;BME280;24904;52.208;21.192;2023-05-02T10:12:57;100490.23;;;20.21;41.46
39177;BME280;24904;52.208;21.192;2023-05-02T10:18:05;100497.38;;;20.16;42.30
39177;BME280;24904;52.208;21.192;2023-05-02T10:23:12;100504.40;;;20.09;42.01
39177;BME280;24904;52.208;21.192;2023-05-02T10:28:16;100505.80;;;19.95;42.43
39177;BME280;24904;52.208;21.192;2023-05-02T10:33:20;100517.73;;;19.89;42.22
39177;BME280;24904;52.208;21.192;2023-05-02T10:38:23;100511.61;;;19.75;42.81
39177;BME280;24904;52.208;21.192;2023-05-02T10:43:29;100520.39;;;19.62;42.80
39177;BME280;24904;52.208;21.192;2023-05-02T10:48:33;100525.27;;;19.45;42.92
39177;BME280;24904;52.208;21.192;2023-05-02T10:53:39;100526.79;;;19.34;43.21
39177;BME280;24904;52.208;21.192;2023-05-02T10:58:45;100534.67;;;19.27;43.90
39177;BME280;24904;52.208;21.192;2023-05-02T11:03:56;100541.25;;;19.13;44.78
39177;BME280;24904;52.208;21.192;2023-05-02T11:09:31;100550.66;;;18.88;45.43
39177;BME280;24904;52.208;21.192;2023-05-02T11:14:44;100567.84;;;18.58;46.08
39177;BME280;24904;52.208;21.192;2023-05-02T11:20:23;100581.54;;;18.29;46.72
39177;BME280;24904;52.208;21.192;2023-05-02T11:25:35;100601.99;;;18.02;47.18
39177;BME280;24904;52.208;21.192;2023-05-02T11:30:41;100621.83;;;17.76;47.63
39177;BME280;24904;52.208;21.192;2023-05-02T11:35:48;100634.88;;;17.48;48.10
39177;BME280;24904;52.208;21.192;2023-05-02T11:40:53;100648.46;;;17.13;49.64
39177;BME280;24904;52.208;21.192;2023-05-02T11:45:57;100660.39;;;16.80;51.11
39177;BME280;24904;52.208;21.192;2023-05-02T11:51:01;100670.88;;;16.55;52.02
39177;BME280;24904;52.208;21.192;2023-05-02T11:56:06;100674.71;;;16.42;53.34
39177;BME280;24904;52.208;21.192;2023-05-02T12:01:13;100678.98;;;16.34;54.68
39177;BME280;24904;52.208;21.192;2023-05-02T12:06:17;100687.22;;;16.30;55.29
39177;BME280;24904;52.208;21.192;2023-05-02T12:11:20;100683.66;;;16.19;55.09
39177;BME280;24904;52.208;21.192;2023-05-02T12:16:24;100686.11;;;16.17;55.10
39177;BME280;24904;52.208;21.192;2023-05-02T12:21:28;100689.07;;;16.15;54.58
39177;BME280;24904;52.208;21.192;2023-05-02T12:26:34;100692.70;;;16.16;54.58
39177;BME280;24904;52.208;21.192;2023-05-02T12:31:37;100693.23;;;16.21;54.60
39177;BME280;24904;52.208;21.192;2023-05-02T12:36:44;100700.90;;;16.34;54.77
39177;BME280;24904;52.208;21.192;2023-05-02T12:41:47;100700.52;;;16.53;54.92
39177;BME280;24904;52.208;21.192;2023-05-02T12:46:59;100701.45;;;16.65;53.95
39177;BME280;24904;52.208;21.192;2023-05-02T12:52:03;100703.45;;;16.75;53.39
39177;BME280;24904;52.208;21.192;2023-05-02T12:57:06;100705.23;;;16.86;53.40
39177;BME280;24904;52.208;21.192;2023-05-02T13:02:10;100700.40;;;17.04;53.47
39177;BME280;24904;52.208;21.192;2023-05-02T13:07:15;100706.27;;;17.20;53.22
39177;BME280;24904;52.208;21.192;2023-05-02T13:12:19;100710.62;;;17.28;53.18
39177;BME280;24904;52.208;21.192;2023-05-02T13:17:24;100712.55;;;17.24;52.24
39177;BME280;24904;52.208;21.192;2023-05-02T13:22:29;100726.79;;;17.22;51.66
39177;BME280;24904;52.208;21.192;2023-05-02T13:27:33;100724.30;;;17.17;51.51
39177;BME280;24904;52.208;21.192;2023-05-02T13:32:38;100726.37;;;17.14;51.01
39177;BME280;24904;52.208;21.192;2023-05-02T13:37:43;100733.59;;;17.07;50.13
39177;BME280;24904;52.208;21.192;2023-05-02T13:42:48;100731.65;;;17.01;48.94
39177;BME280;24904;52.208;21.192;2023-05-02T13:47:52;100730.80;;;16.99;48.68
39177;BME280;24904;52.208;21.192;2023-05-02T13:52:56;100736.52;;;16.99;48.72
39177;BME280;24904;52.208;21.192;2023-05-02T13:58:01;100734.45;;;17.08;49.53
39177;BME280;24904;52.208;21.192;2023-05-02T14:11:20;100735.30;;;17.33;48.96
39177;BME280;24904;52.208;21.192;2023-05-02T14:16:23;100739.32;;;17.36;48.49
39177;BME280;24904;52.208;21.192;2023-05-02T14:21:26;100742.20;;;17.33;47.99
39177;BME280;24904;52.208;21.192;2023-05-02T14:26:29;100744.44;;;17.32;47.76
39177;BME280;24904;52.208;21.192;2023-05-02T14:31:32;100742.95;;;17.29;47.33
39177;BME280;24904;52.208;21.192;2023-05-02T14:36:35;100744.92;;;17.29;47.17
39177;BME280;24904;52.208;21.192;2023-05-02T14:41:38;100747.02;;;17.28;46.69
39177;BME280;24904;52.208;21.192;2023-05-02T14:46:41;100749.91;;;17.25;46.42
39177;BME280;24904;52.208;21.192;2023-05-02T14:51:44;100756.45;;;17.20;46.16
39177;BME280;24904;52.208;21.192;2023-05-02T14:56:48;100755.98;;;17.11;45.79
39177;BME280;24904;52.208;21.192;2023-05-02T15:01:54;100750.35;;;17.02;45.66
39177;BME280;24904;52.208;21.192;2023-05-02T15:06:57;100747.29;;;16.99;45.91
39177;BME280;24904;52.208;21.192;2023-05-02T15:12:01;100750.39;;;16.98;45.85
39177;BME280;24904;52.208;21.192;2023-05-02T15:17:04;100750.33;;;16.97;46.04
39177;BME280;24904;52.208;21.192;2023-05-02T15:22:07;100746.30;;;16.95;45.86
39177;BME280;24904;52.208;21.192;2023-05-02T15:27:11;100742.44;;;16.93;46.30
39177;BME280;24904;52.208;21.192;2023-05-02T15:32:14;100737.23;;;16.90;46.09
39177;BME280;24904;52.208;21.192;2023-05-02T15:37:17;100734.95;;;16.87;46.45
39177;BME280;24904;52.208;21.192;2023-05-02T15:42:20;100736.49;;;16.83;46.53
39177;BME280;24904;52.208;21.192;2023-05-02T15:47:23;100738.28;;;16.80;46.89
39177;BME280;24904;52.208;21.192;2023-05-02T15:52:26;100743.94;;;16.77;46.56
39177;BME280;24904;52.208;21.192;2023-05-02T15:57:29;100742.91;;;16.74;46.73
39177;BME280;24904;52.208;21.192;2023-05-02T16:02:32;100742.21;;;16.72;46.99
39177;BME280;24904;52.208;21.192;2023-05-02T16:07:35;100739.45;;;16.70;45.93
39177;BME280;24904;52.208;21.192;2023-05-02T16:12:39;100740.33;;;16.70;45.89
39177;BME280;24904;52.208;21.192;2023-05-02T16:17:42;100742.48;;;16.69;45.61
39177;BME280;24904;52.208;21.192;2023-05-02T16:22:46;100747.23;;;16.69;45.80
39177;BME280;24904;52.208;21.192;2023-05-02T16:27:49;100751.75;;;16.68;45.75
39177;BME280;24904;52.208;21.192;2023-05-02T16:32:52;100752.00;;;16.68;45.70
39177;BME280;24904;52.208;21.192;2023-05-02T16:37:55;100757.23;;;16.68;45.79
39177;BME280;24904;52.208;21.192;2023-05-02T16:42:59;100757.92;;;16.67;46.10
39177;BME280;24904;52.208;21.192;2023-05-02T16:48:02;100767.54;;;16.64;46.35
39177;BME280;24904;52.208;21.192;2023-05-02T16:53:05;100770.39;;;16.60;46.83
39177;BME280;24904;52.208;21.192;2023-05-02T16:58:09;100767.58;;;16.55;46.77
39177;BME280;24904;52.208;21.192;2023-05-02T17:03:12;100771.64;;;16.52;46.63
39177;BME280;24904;52.208;21.192;2023-05-02T17:08:15;100769.45;;;16.49;46.86
39177;BME280;24904;52.208;21.192;2023-05-02T17:13:18;100771.23;;;16.45;47.55
39177;BME280;24904;52.208;21.192;2023-05-02T17:18:21;100770.02;;;16.33;48.27
39177;BME280;24904;52.208;21.192;2023-05-02T17:23:25;100773.70;;;16.25;48.54
39177;BME280;24904;52.208;21.192;2023-05-02T17:28:29;100775.48;;;16.22;48.40
39177;BME280;24904;52.208;21.192;2023-05-02T17:33:32;100777.27;;;16.13;49.06
39177;BME280;24904;52.208;21.192;2023-05-02T17:38:36;100778.34;;;16.03;49.14
39177;BME280;24904;52.208;21.192;2023-05-02T17:43:39;100782.74;;;15.91;49.49
39177;BME280;24904;52.208;21.192;2023-05-02T17:48:44;100790.14;;;15.80;50.03
39177;BME280;24904;52.208;21.192;2023-05-02T17:53:50;100799.52;;;15.68;50.51
39177;BME280;24904;52.208;21.192;2023-05-02T17:58:53;100804.27;;;15.56;51.10
39177;BME280;24904;52.208;21.192;2023-05-02T18:03:57;100803.73;;;15.45;51.44
39177;BME280;24904;52.208;21.192;2023-05-02T18:09:00;100805.26;;;15.35;51.81
39177;BME280;24904;52.208;21.192;2023-05-02T18:14:12;100813.64;;;15.25;52.24
39177;BME280;24904;52.208;21.192;2023-05-02T18:19:15;100811.84;;;15.14;52.50
39177;BME280;24904;52.208;21.192;2023-05-02T18:24:18;100816.98;;;15.04;52.77
39177;BME280;24904;52.208;21.192;2023-05-02T18:29:21;100821.40;;;14.98;52.79
39177;BME280;24904;52.208;21.192;2023-05-02T18:34:24;100824.48;;;14.95;52.74
39177;BME280;24904;52.208;21.192;2023-05-02T18:39:28;100825.91;;;14.94;52.86
39177;BME280;24904;52.208;21.192;2023-05-02T18:44:32;100829.07;;;14.96;52.87
39177;BME280;24904;52.208;21.192;2023-05-02T18:49:35;100833.57;;;15.00;52.94
39177;BME280;24904;52.208;21.192;2023-05-02T18:54:38;100838.54;;;15.03;52.75
39177;BME280;24904;52.208;21.192;2023-05-02T18:59:41;100842.80;;;15.04;52.77
39177;BME280;24904;52.208;21.192;2023-05-02T19:04:44;100853.25;;;15.06;52.73
39177;BME280;24904;52.208;21.192;2023-05-02T19:09:47;100863.73;;;15.05;52.90
39177;BME280;24904;52.208;21.192;2023-05-02T19:14:50;100867.23;;;15.00;53.16
39177;BME280;24904;52.208;21.192;2023-05-02T19:19:53;100876.46;;;14.99;53.23
39177;BME280;24904;52.208;21.192;2023-05-02T19:24:56;100884.30;;;14.96;53.56
39177;BME280;24904;52.208;21.192;2023-05-02T19:29:59;100885.05;;;14.88;54.15
39177;BME280;24904;52.208;21.192;2023-05-02T19:35:02;100890.25;;;14.78;54.50
39177;BME280;24904;52.208;21.192;2023-05-02T19:40:08;100901.14;;;14.71;54.86
39177;BME280;24904;52.208;21.192;2023-05-02T19:45:12;100907.77;;;14.66;55.10
39177;BME280;24904;52.208;21.192;2023-05-02T19:50:15;100914.21;;;14.62;55.50
39177;BME280;24904;52.208;21.192;2023-05-02T19:55:18;100929.99;;;14.55;55.76
39177;BME280;24904;52.208;21.192;2023-05-02T20:00:22;100936.38;;;14.50;55.61
39177;BME280;24904;52.208;21.192;2023-05-02T20:05:25;100957.45;;;14.49;55.64
39177;BME280;24904;52.208;21.192;2023-05-02T20:10:28;100965.77;;;14.43;55.37
39177;BME280;24904;52.208;21.192;2023-05-02T20:15:31;100969.83;;;14.37;55.39
39177;BME280;24904;52.208;21.192;2023-05-02T20:20:34;100979.98;;;14.32;55.57
39177;BME280;24904;52.208;21.192;2023-05-02T20:25:38;100984.17;;;14.19;56.43
39177;BME280;24904;52.208;21.192;2023-05-02T20:30:41;100991.02;;;14.05;57.41
39177;BME280;24904;52.208;21.192;2023-05-02T20:35:45;101002.75;;;13.91;58.26
39177;BME280;24904;52.208;21.192;2023-05-02T20:40:54;101009.84;;;13.80;59.02
39177;BME280;24904;52.208;21.192;2023-05-02T20:46:08;101015.09;;;13.66;59.26
39177;BME280;24904;52.208;21.192;2023-05-02T20:51:12;101023.19;;;13.55;59.69
39177;BME280;24904;52.208;21.192;2023-05-02T20:56:15;101028.33;;;13.49;60.13
39177;BME280;24904;52.208;21.192;2023-05-02T21:01:18;101032.42;;;13.40;60.41
39177;BME280;24904;52.208;21.192;2023-05-02T21:06:21;101039.91;;;13.32;60.58
39177;BME280;24904;52.208;21.192;2023-05-02T21:11:24;101044.39;;;13.24;61.20
39177;BME280;24904;52.208;21.192;2023-05-02T21:16:28;101047.16;;;13.20;61.43
39177;BME280;24904;52.208;21.192;2023-05-02T21:21:31;101050.95;;;13.14;61.88
39177;BME280;24904;52.208;21.192;2023-05-02T21:26:34;101056.94;;;13.08;62.07
39177;BME280;24904;52.208;21.192;2023-05-02T21:31:37;101058.73;;;13.00;62.08
39177;BME280;24904;52.208;21.192;2023-05-02T21:36:40;101064.59;;;12.91;62.37
39177;BME280;24904;52.208;21.192;2023-05-02T21:41:44;101078.75;;;12.77;62.38
39177;BME280;24904;52.208;21.192;2023-05-02T21:46:47;101082.81;;;12.63;62.19
39177;BME280;24904;52.208;21.192;2023-05-02T21:51:51;101091.09;;;12.48;61.80
39177;BME280;24904;52.208;21.192;2023-05-02T21:56:54;101100.88;;;12.39;61.73
39177;BME280;24904;52.208;21.192;2023-05-02T22:01:57;101102.91;;;12.34;61.32
39177;BME280;24904;52.208;21.192;2023-05-02T22:07:00;101104.90;;;12.25;60.72
39177;BME280;24904;52.208;21.192;2023-05-02T22:12:04;101128.04;;;12.21;60.91
39177;BME280;24904;52.208;21.192;2023-05-02T22:17:07;101133.58;;;12.13;62.25
39177;BME280;24904;52.208;21.192;2023-05-02T22:22:10;101143.96;;;11.99;62.80
39177;BME280;24904;52.208;21.192;2023-05-02T22:27:13;101155.40;;;11.84;63.36
39177;BME280;24904;52.208;21.192;2023-05-02T22:32:16;101159.86;;;11.72;64.07
39177;BME280;24904;52.208;21.192;2023-05-02T22:37:19;101154.35;;;11.59;64.13
39177;BME280;24904;52.208;21.192;2023-05-02T22:42:23;101152.36;;;11.46;64.71
39177;BME280;24904;52.208;21.192;2023-05-02T22:47:26;101156.58;;;11.37;64.99
39177;BME280;24904;52.208;21.192;2023-05-02T22:52:30;101157.59;;;11.28;64.81
39177;BME280;24904;52.208;21.192;2023-05-02T22:57:39;101164.17;;;11.21;64.72
39177;BME280;24904;52.208;21.192;2023-05-02T23:02:42;101167.83;;;11.15;64.74
39177;BME280;24904;52.208;21.192;2023-05-02T23:07:45;101165.27;;;11.13;64.96
39177;BME280;24904;52.208;21.192;2023-05-02T23:12:48;101164.37;;;11.08;64.77
39177;BME280;24904;52.208;21.192;2023-05-02T23:17:51;101168.85;;;11.05;64.78
39177;BME280;24904;52.208;21.192;2023-05-02T23:22:54;101173.20;;;11.03;64.45
39177;BME280;24904;52.208;21.192;2023-05-02T23:27:57;101172.92;;;10.97;64.42
39177;BME280;24904;52.208;21.192;2023-05-02T23:33:00;101171.77;;;10.91;64.36
39177;BME280;24904;52.208;21.192;2023-05-02T23:38:05;101171.91;;;10.86;64.27
39177;BME280;24904;52.208;21.192;2023-05-02T23:43:09;101174.48;;;10.86;64.12
39177;BME280;24904;52.208;21.192;2023-05-02T23:48:12;101173.59;;;10.85;63.86
39177;BME280;24904;52.208;21.192;2023-05-02T23:53:15;101182.16;;;10.82;64.00
39177;BME280;24904;52.208;21.192;2023-05-02T23:58:18;101186.97;;;10.80;64.05
